Cape Express — HO5337 — position and weather

sailwx.info

Track history (hours):
 
Tides and Currents Weather Stations Pressure Air Temp Water Temp Dewpoint Dewpoint Depression Visibility Wind Speed Wind Dir Waves Ship Positions

Cape Express

Last reported at 2017-Feb-24 20:30 UTC. Time now 2017-Feb-25 02:23 UTC.
Position N 26°05' W 079°32'.

Length 29 m; draft 2.1 m.

Type: Cargo ship. MMSI: 370269000.

Date/timePositionNaut miles runAvg speedWind from/ knotsBaromVisibWave heightAir tempDewpointWater temp
2017-Feb-24 20:30N 26°05' W 079°32'8 9.0
2017-Feb-24 19:33N 26°05' W 079°41'9 9.1
2017-Feb-24 18:33N 26°05' W 079°51'9 9.4
2017-Feb-24 17:33N 26°05' W 080°02'6 5.6
2017-Feb-24 16:33N 26°04' W 080°08'0 0.0
2017-Feb-24 15:33N 26°04' W 080°08'0 0.0
2017-Feb-24 14:33N 26°04' W 080°08'0 0.0
2017-Feb-24 13:33N 26°04' W 080°08'0 0.0
2017-Feb-24 12:33N 26°04' W 080°08'2 2.4
2017-Feb-24 11:33N 26°06' W 080°06'7 7.2
2017-Feb-24 10:33N 26°01' W 079°60'9 8.7
2017-Feb-24 09:33N 25°57' W 079°51'8 8.4
2017-Feb-24 08:33N 25°53' W 079°43'12 0.5
2017-Feb-23 08:33N 25°49' W 079°31'8 8.3
2017-Feb-23 07:33N 25°53' W 079°39'8 8.0
2017-Feb-23 06:33N 25°57' W 079°47'8 7.9
2017-Feb-23 05:33N 26°00' W 079°55'8 8.3
2017-Feb-23 04:33N 26°04' W 080°03'5 4.5
2017-Feb-23 03:33N 26°04' W 080°08'0 0.0
2017-Feb-23 02:33N 26°04' W 080°08'0 0.0
2017-Feb-23 01:33N 26°04' W 080°08'0 0.0
2017-Feb-23 00:33N 26°04' W 080°08'0 0.0
2017-Feb-22 23:33N 26°04' W 080°08'1 0.7
2017-Feb-22 22:33N 26°04' W 080°07'7 7.5
2017-Feb-22 21:33N 26°05' W 079°59'9 9.3
2017-Feb-22 20:33N 26°03' W 079°49'9 8.8
2017-Feb-22 19:33N 26°03' W 079°39'12 0.9
2017-Feb-22 05:24N 26°15' W 079°35'8 9.9
2017-Feb-22 04:33N 26°12' W 079°44'10 9.7
2017-Feb-22 03:33N 26°09' W 079°54'10 9.9
2017-Feb-22 02:33N 26°06' W 080°04'4 4.0
2017-Feb-22 01:33N 26°04' W 080°08'0 0.0
2017-Feb-22 00:33N 26°04' W 080°08'0 0.0
2017-Feb-21 23:33N 26°04' W 080°08'0 0.0
2017-Feb-21 22:33N 26°04' W 080°08'0 0.0
2017-Feb-21 21:33N 26°04' W 080°08'5 4.7
2017-Feb-21 20:33N 26°05' W 080°03'1110.9
2017-Feb-21 19:33N 26°02' W 079°51'  
2017-Feb-18 06:24N 26°02' W 079°40'8 9.3
2017-Feb-18 05:33N 26°02' W 079°49'8 7.9
2017-Feb-18 04:33N 26°04' W 079°58'8 7.6
2017-Feb-18 03:33N 26°06' W 080°06'3 2.6
2017-Feb-18 02:33N 26°04' W 080°08'0 0.0
2017-Feb-18 01:33N 26°04' W 080°08'0 0.0
2017-Feb-18 00:33N 26°04' W 080°08'0 0.0
2017-Feb-17 23:33N 26°04' W 080°08'0 0.0
2017-Feb-17 22:33N 26°04' W 080°08'3 3.1
2017-Feb-17 21:33N 26°06' W 080°05'5 5.4
2017-Feb-17 20:33N 26°08' W 079°60'8 8.2
2017-Feb-17 19:33N 26°10' W 079°51'11 8.6
2017-Feb-17 18:20N 26°14' W 079°40'2 0.1
2017-Feb-17 04:33N 26°13' W 079°41'1010.0
2017-Feb-17 03:33N 26°10' W 079°52'10 9.9
2017-Feb-17 02:33N 26°06' W 080°02'6 5.8
2017-Feb-17 01:33N 26°04' W 080°08'0 0.0
2017-Feb-17 00:33N 26°04' W 080°08'0 0.0
2017-Feb-16 23:33N 26°04' W 080°08'0 0.0
2017-Feb-16 22:33N 26°04' W 080°08'0 0.0
2017-Feb-16 21:33N 26°04' W 080°08'0 0.0
2017-Feb-16 20:33N 26°04' W 080°08'0 0.0
2017-Feb-16 19:33N 26°04' W 080°08'3 3.0
2017-Feb-16 18:33N 26°06' W 080°05'9 9.5
2017-Feb-16 17:33N 26°03' W 079°55'9 9.3
2017-Feb-16 16:33N 26°01' W 079°45'11 0.3
2017-Feb-15 05:17N 25°57' W 079°33'7 8.9
2017-Feb-15 04:32N 25°59' W 079°41'9 8.4
2017-Feb-15 03:31N 26°02' W 079°50'8 8.0
2017-Feb-15 02:33N 26°04' W 079°58'8 8.0
2017-Feb-15 01:33N 26°05' W 080°07'2 1.6
2017-Feb-15 00:33N 26°04' W 080°08'0 0.0
2017-Feb-14 23:33N 26°04' W 080°08'0 0.0
2017-Feb-14 22:33N 26°04' W 080°08'0 0.0
2017-Feb-14 21:33N 26°04' W 080°08'5 5.3
2017-Feb-14 20:33N 26°05' W 080°02'  
Track history (hours):
 
Tides and Currents Weather Stations Pressure Air Temp Water Temp Dewpoint Dewpoint Depression Visibility Wind Speed Wind Dir Waves Ship Positions

Cape Express

Last reported at 2017-Feb-24 20:30 UTC. Time now 2017-Feb-25 02:23 UTC.
Position N 26°05' W 079°32'.

Length 29 m; draft 2.1 m.

Type: Cargo ship. MMSI: 370269000.

Date/timePositionNaut miles runAvg speedWind from/ knotsBaromVisibWave heightAir tempDewpointWater temp
2017-Feb-24 20:30N 26°05' W 079°32'8 9.0
2017-Feb-24 19:33N 26°05' W 079°41'9 9.1
2017-Feb-24 18:33N 26°05' W 079°51'9 9.4
2017-Feb-24 17:33N 26°05' W 080°02'6 5.6
2017-Feb-24 16:33N 26°04' W 080°08'0 0.0
2017-Feb-24 15:33N 26°04' W 080°08'0 0.0
2017-Feb-24 14:33N 26°04' W 080°08'0 0.0
2017-Feb-24 13:33N 26°04' W 080°08'0 0.0
2017-Feb-24 12:33N 26°04' W 080°08'2 2.4
2017-Feb-24 11:33N 26°06' W 080°06'7 7.2
2017-Feb-24 10:33N 26°01' W 079°60'9 8.7
2017-Feb-24 09:33N 25°57' W 079°51'8 8.4
2017-Feb-24 08:33N 25°53' W 079°43'12 0.5
2017-Feb-23 08:33N 25°49' W 079°31'8 8.3
2017-Feb-23 07:33N 25°53' W 079°39'8 8.0
2017-Feb-23 06:33N 25°57' W 079°47'8 7.9
2017-Feb-23 05:33N 26°00' W 079°55'8 8.3
2017-Feb-23 04:33N 26°04' W 080°03'5 4.5
2017-Feb-23 03:33N 26°04' W 080°08'0 0.0
2017-Feb-23 02:33N 26°04' W 080°08'0 0.0
2017-Feb-23 01:33N 26°04' W 080°08'0 0.0
2017-Feb-23 00:33N 26°04' W 080°08'0 0.0
2017-Feb-22 23:33N 26°04' W 080°08'1 0.7
2017-Feb-22 22:33N 26°04' W 080°07'7 7.5
2017-Feb-22 21:33N 26°05' W 079°59'9 9.3
2017-Feb-22 20:33N 26°03' W 079°49'9 8.8
2017-Feb-22 19:33N 26°03' W 079°39'12 0.9
2017-Feb-22 05:24N 26°15' W 079°35'8 9.9
2017-Feb-22 04:33N 26°12' W 079°44'10 9.7
2017-Feb-22 03:33N 26°09' W 079°54'10 9.9
2017-Feb-22 02:33N 26°06' W 080°04'4 4.0
2017-Feb-22 01:33N 26°04' W 080°08'0 0.0
2017-Feb-22 00:33N 26°04' W 080°08'0 0.0
2017-Feb-21 23:33N 26°04' W 080°08'0 0.0
2017-Feb-21 22:33N 26°04' W 080°08'0 0.0
2017-Feb-21 21:33N 26°04' W 080°08'5 4.7
2017-Feb-21 20:33N 26°05' W 080°03'1110.9
2017-Feb-21 19:33N 26°02' W 079°51'  
2017-Feb-18 06:24N 26°02' W 079°40'8 9.3
2017-Feb-18 05:33N 26°02' W 079°49'8 7.9
2017-Feb-18 04:33N 26°04' W 079°58'8 7.6
2017-Feb-18 03:33N 26°06' W 080°06'3 2.6
2017-Feb-18 02:33N 26°04' W 080°08'0 0.0
2017-Feb-18 01:33N 26°04' W 080°08'0 0.0
2017-Feb-18 00:33N 26°04' W 080°08'0 0.0
2017-Feb-17 23:33N 26°04' W 080°08'0 0.0
2017-Feb-17 22:33N 26°04' W 080°08'3 3.1
2017-Feb-17 21:33N 26°06' W 080°05'5 5.4
2017-Feb-17 20:33N 26°08' W 079°60'8 8.2
2017-Feb-17 19:33N 26°10' W 079°51'11 8.6
2017-Feb-17 18:20N 26°14' W 079°40'2 0.1
2017-Feb-17 04:33N 26°13' W 079°41'1010.0
2017-Feb-17 03:33N 26°10' W 079°52'10 9.9
2017-Feb-17 02:33N 26°06' W 080°02'6 5.8
2017-Feb-17 01:33N 26°04' W 080°08'0 0.0
2017-Feb-17 00:33N 26°04' W 080°08'0 0.0
2017-Feb-16 23:33N 26°04' W 080°08'0 0.0
2017-Feb-16 22:33N 26°04' W 080°08'0 0.0
2017-Feb-16 21:33N 26°04' W 080°08'0 0.0
2017-Feb-16 20:33N 26°04' W 080°08'0 0.0
2017-Feb-16 19:33N 26°04' W 080°08'3 3.0
2017-Feb-16 18:33N 26°06' W 080°05'9 9.5
2017-Feb-16 17:33N 26°03' W 079°55'9 9.3
2017-Feb-16 16:33N 26°01' W 079°45'11 0.3
2017-Feb-15 05:17N 25°57' W 079°33'7 8.9
2017-Feb-15 04:32N 25°59' W 079°41'9 8.4
2017-Feb-15 03:31N 26°02' W 079°50'8 8.0
2017-Feb-15 02:33N 26°04' W 079°58'8 8.0
2017-Feb-15 01:33N 26°05' W 080°07'2 1.6
2017-Feb-15 00:33N 26°04' W 080°08'0 0.0
2017-Feb-14 23:33N 26°04' W 080°08'0 0.0
2017-Feb-14 22:33N 26°04' W 080°08'0 0.0
2017-Feb-14 21:33N 26°04' W 080°08'5 5.3
2017-Feb-14 20:33N 26°05' W 080°02'  

Dump ship's entire track history